Time;durP1;ratioP1;P1;durP2;ratioP2;P2;SDS_P1;SDS_P2;PMS_P1;PMS_P2;Temp;Humidity;BMP_temperature;BMP_pressure;BME280_temperature;BME280_humidity;BME280_pressure;Samples;Min_cycle;Max_cycle;Signal;HPM_P1;HPM_P2
2024/01/21 00:01:52;;;;;;;11.07;4.32;;;;;;;-144.74;100.00;63161.41;4956044;28;20031;-73
2024/01/21 00:04:17;;;;;;;13.77;4.45;;;;;;;-144.74;100.00;63161.41;4953993;28;20039;-73
2024/01/21 00:06:42;;;;;;;14.43;4.63;;;;;;;-144.74;100.00;63161.41;4959220;28;20039;-73
2024/01/21 00:09:08;;;;;;;12.50;4.47;;;;;;;-144.74;100.00;63161.41;4979236;28;20042;-72
2024/01/21 00:11:34;;;;;;;9.75;5.07;;;;;;;-144.74;100.00;63161.41;4959828;28;20069;-71
2024/01/21 00:13:59;;;;;;;14.77;4.72;;;;;;;-144.74;100.00;63161.41;4960451;28;20039;-74
2024/01/21 00:16:25;;;;;;;18.05;3.92;;;;;;;-144.74;100.00;63161.41;4956406;28;20117;-73
2024/01/21 00:18:50;;;;;;;10.63;4.20;;;;;;;-144.74;100.00;63161.41;4955505;28;20042;-72
2024/01/21 00:21:15;;;;;;;13.95;5.03;;;;;;;-144.74;100.00;63161.41;4955759;28;20122;-72
2024/01/21 00:23:41;;;;;;;14.65;4.47;;;;;;;-144.74;100.00;63161.41;4956545;28;20033;-72
2024/01/21 00:26:06;;;;;;;11.77;3.95;;;;;;;-144.74;100.00;63161.41;4960406;28;20023;-72
2024/01/21 00:28:37;;;;;;;10.23;4.13;;;;;;;-144.74;100.00;63161.41;4958205;28;20027;-72
2024/01/21 00:31:06;;;;;;;10.93;4.13;;;;;;;-144.74;100.00;63161.41;4955960;28;20057;-73
2024/01/21 00:33:31;;;;;;;8.70;4.20;;;;;;;-144.74;100.00;63161.41;4957285;28;20031;-71
2024/01/21 00:35:57;;;;;;;10.32;4.35;;;;;;;-144.74;100.00;63161.41;4957992;28;20383;-72
2024/01/21 00:38:22;;;;;;;7.95;3.85;;;;;;;-144.74;100.00;63161.41;4964318;28;20073;-72
2024/01/21 00:40:47;;;;;;;12.50;4.80;;;;;;;-144.74;100.00;63161.41;4955135;28;20041;-73
2024/01/21 00:43:13;;;;;;;10.27;4.00;;;;;;;-144.74;100.00;63161.41;4979176;28;20061;-72
2024/01/21 00:45:38;;;;;;;9.07;3.78;;;;;;;-144.74;100.00;63161.41;4963174;28;20069;-72
2024/01/21 00:48:07;;;;;;;11.55;3.95;;;;;;;-144.74;100.00;63161.41;4957148;28;20037;-72
2024/01/21 00:50:33;;;;;;;8.95;3.80;;;;;;;-144.74;100.00;63161.41;4973097;28;20038;-72
2024/01/21 00:52:58;;;;;;;9.73;4.57;;;;;;;-144.74;100.00;63161.41;4966120;28;20102;-73
2024/01/21 00:55:23;;;;;;;12.52;4.40;;;;;;;-144.74;100.00;63161.41;4952643;28;20035;-73
2024/01/21 00:57:51;;;;;;;8.23;3.95;;;;;;;-144.74;100.00;63161.41;4952002;28;20023;-72
2024/01/21 01:00:22;;;;;;;10.82;3.80;;;;;;;-144.74;100.00;63161.41;4955030;28;20045;-72
2024/01/21 01:02:47;;;;;;;7.88;3.50;;;;;;;-144.74;100.00;63161.41;4955442;28;20108;-73
2024/01/21 01:05:12;;;;;;;13.07;3.88;;;;;;;-144.74;100.00;63161.41;4951092;28;20074;-72
2024/01/21 01:07:38;;;;;;;9.50;4.20;;;;;;;-144.74;100.00;63161.41;4955051;28;20035;-72
2024/01/21 01:10:03;;;;;;;7.53;3.47;;;;;;;-144.74;100.00;63161.41;4954549;28;20041;-74
2024/01/21 01:12:28;;;;;;;12.32;3.72;;;;;;;-144.74;100.00;63161.41;4972267;28;20027;-72
2024/01/21 01:14:54;;;;;;;8.63;3.38;;;;;;;-144.74;100.00;63161.41;4952374;28;20116;-72
2024/01/21 01:17:19;;;;;;;6.93;3.70;;;;;;;-144.74;100.00;63161.41;4974253;28;20030;-73
2024/01/21 01:19:44;;;;;;;8.07;3.42;;;;;;;-144.74;100.00;63161.41;4972166;28;20046;-72
2024/01/21 01:22:12;;;;;;;17.08;3.65;;;;;;;-144.74;100.00;63161.41;4969102;28;20537;-72
2024/01/21 01:24:37;;;;;;;7.10;4.18;;;;;;;-144.74;100.00;63161.41;4953906;28;20031;-72
2024/01/21 01:27:03;;;;;;;7.35;3.40;;;;;;;-144.74;100.00;63161.41;4953480;28;20019;-72
2024/01/21 01:29:28;;;;;;;9.85;3.63;;;;;;;-144.74;100.00;63161.41;4954625;28;20454;-72
2024/01/21 01:31:53;;;;;;;9.23;3.50;;;;;;;-144.74;100.00;63161.41;4972082;28;20110;-73
2024/01/21 01:34:18;;;;;;;10.02;3.20;;;;;;;-144.74;100.00;63161.41;4954281;28;20031;-72
2024/01/21 01:36:44;;;;;;;7.90;4.03;;;;;;;-144.74;100.00;63161.41;4955076;28;20057;-74
2024/01/21 01:39:09;;;;;;;11.38;3.30;;;;;;;-144.74;100.00;63161.41;4952745;28;20029;-72
2024/01/21 01:41:34;;;;;;;8.43;3.25;;;;;;;-144.74;100.00;63161.41;4957785;28;20050;-72
2024/01/21 01:44:00;;;;;;;6.00;3.15;;;;;;;-144.74;100.00;63161.41;4956233;28;20031;-73
2024/01/21 01:46:25;;;;;;;8.85;3.60;;;;;;;-144.74;100.00;63161.41;4977055;28;20393;-72
2024/01/21 01:48:51;;;;;;;11.10;3.38;;;;;;;-144.74;100.00;63161.41;4974996;28;20043;-72
2024/01/21 01:51:16;;;;;;;8.03;3.43;;;;;;;-144.74;100.00;63161.41;4953888;28;20019;-72
2024/01/21 01:53:42;;;;;;;10.07;3.63;;;;;;;-144.74;100.00;63161.41;4957888;28;20030;-74
2024/01/21 01:56:08;;;;;;;9.93;3.53;;;;;;;-144.74;100.00;63161.41;4975463;28;20018;-73
2024/01/21 01:58:34;;;;;;;6.13;3.22;;;;;;;-144.74;100.00;63161.41;4957798;28;20402;-73
2024/01/21 02:01:00;;;;;;;11.55;4.18;;;;;;;-144.74;100.00;63161.41;4955661;28;20081;-73
2024/01/21 02:03:26;;;;;;;8.02;3.70;;;;;;;-144.74;100.00;63161.41;4958350;28;20022;-73
2024/01/21 02:05:51;;;;;;;8.93;3.72;;;;;;;-144.74;100.00;63161.41;4954983;28;20053;-73
2024/01/21 02:08:16;;;;;;;10.57;3.78;;;;;;;-144.74;100.00;63161.41;4957806;28;20026;-73
2024/01/21 02:10:42;;;;;;;8.90;3.83;;;;;;;-144.74;100.00;63161.41;4959194;28;20034;-72
2024/01/21 02:13:07;;;;;;;10.43;3.75;;;;;;;-144.74;100.00;63161.41;4959322;28;20023;-72
2024/01/21 02:15:33;;;;;;;8.05;3.83;;;;;;;-144.74;100.00;63161.41;4976318;28;20042;-72
2024/01/21 02:17:58;;;;;;;12.07;4.57;;;;;;;-144.74;100.00;63161.41;4958041;28;20026;-72
2024/01/21 02:20:23;;;;;;;9.93;4.20;;;;;;;-144.74;100.00;63161.41;4957189;28;20089;-72
2024/01/21 02:22:50;;;;;;;7.38;3.90;;;;;;;-144.74;100.00;63161.41;4959610;28;20026;-72
2024/01/21 02:25:16;;;;;;;10.10;4.32;;;;;;;-144.74;100.00;63161.41;4957288;28;20035;-74
2024/01/21 02:27:41;;;;;;;8.27;4.13;;;;;;;-144.74;100.00;63161.41;4957693;28;20033;-72
2024/01/21 02:30:07;;;;;;;8.15;3.92;;;;;;;-144.74;100.00;63161.41;4956961;28;20114;-72
2024/01/21 02:32:32;;;;;;;10.38;4.25;;;;;;;-144.74;100.00;63161.41;4957604;28;20077;-73
2024/01/21 02:34:58;;;;;;;7.22;3.95;;;;;;;-144.74;100.00;63161.41;4956945;28;20038;-72
2024/01/21 02:37:23;;;;;;;9.93;4.20;;;;;;;-144.74;100.00;63161.41;4959800;28;20042;-72
2024/01/21 02:39:48;;;;;;;8.90;4.35;;;;;;;-144.74;100.00;63161.41;4957518;28;20118;-72
2024/01/21 02:42:14;;;;;;;8.65;4.30;;;;;;;-144.74;100.00;63161.41;4959340;28;20022;-73
2024/01/21 02:44:39;;;;;;;10.10;4.63;;;;;;;-144.74;100.00;63161.41;4969069;28;20042;-73
2024/01/21 02:47:05;;;;;;;9.43;3.97;;;;;;;-144.74;100.00;63161.41;4957496;28;20542;-73
2024/01/21 02:49:30;;;;;;;8.52;4.53;;;;;;;-144.74;100.00;63161.41;4948724;28;20031;-74
2024/01/21 02:51:56;;;;;;;16.30;5.32;;;;;;;-144.74;100.00;63161.41;4974129;28;20057;-72
2024/01/21 02:54:22;;;;;;;9.20;4.30;;;;;;;-144.74;100.00;63161.41;4956325;28;20034;-72
2024/01/21 02:56:51;;;;;;;8.50;3.90;;;;;;;-144.74;100.00;63161.41;4952419;28;20057;-72
2024/01/21 02:59:16;;;;;;;11.88;4.45;;;;;;;-144.74;100.00;63161.41;4954863;28;20050;-72
2024/01/21 03:01:42;;;;;;;8.77;4.20;;;;;;;-144.74;100.00;63161.41;4955353;28;20486;-74
2024/01/21 03:04:13;;;;;;;8.20;4.28;;;;;;;-144.74;100.00;63161.41;4954739;28;20041;-72
2024/01/21 03:06:40;;;;;;;11.93;5.30;;;;;;;-144.74;100.00;63161.41;4957573;28;20081;-74
2024/01/21 03:09:08;;;;;;;13.40;5.10;;;;;;;-144.74;100.00;63161.41;4954733;28;20035;-74
2024/01/21 03:11:36;;;;;;;10.95;4.57;;;;;;;-144.74;100.00;63161.41;4950003;28;20057;-74
2024/01/21 03:14:01;;;;;;;10.23;4.32;;;;;;;-144.74;100.00;63161.41;4956905;28;20031;-72
2024/01/21 03:16:26;;;;;;;8.05;4.25;;;;;;;-144.74;100.00;63161.41;4956327;28;20023;-74
2024/01/21 03:18:52;;;;;;;6.50;3.88;;;;;;;-144.74;100.00;63161.41;4961946;28;20722;-72
2024/01/21 03:21:20;;;;;;;15.60;5.03;;;;;;;-144.74;100.00;63161.41;4954731;28;20042;-73
2024/01/21 03:23:46;;;;;;;7.90;4.18;;;;;;;-144.74;100.00;63161.41;4956520;28;20119;-73
2024/01/21 03:26:11;;;;;;;9.38;4.63;;;;;;;-144.74;100.00;63161.41;4954891;28;20113;-72
2024/01/21 03:28:39;;;;;;;14.15;4.57;;;;;;;-144.74;100.00;63161.41;4954556;28;20023;-73
2024/01/21 03:31:07;;;;;;;10.40;4.10;;;;;;;-144.74;100.00;63161.41;4956732;28;20565;-73
2024/01/21 03:33:32;;;;;;;8.57;4.50;;;;;;;-144.74;100.00;63161.41;4968413;28;20027;-72
2024/01/21 03:35:57;;;;;;;18.08;4.85;;;;;;;-144.74;100.00;63161.41;4956050;28;20544;-72
2024/01/21 03:38:23;;;;;;;9.60;4.82;;;;;;;-144.74;100.00;63161.41;4956057;28;20022;-72
2024/01/21 03:40:48;;;;;;;12.45;4.93;;;;;;;-144.74;100.00;63161.41;4969978;28;20039;-72
2024/01/21 03:43:13;;;;;;;13.48;5.25;;;;;;;-144.74;100.00;63161.41;4959995;28;20398;-72
2024/01/21 03:45:41;;;;;;;15.98;4.95;;;;;;;-144.74;100.00;63161.41;4949984;28;20050;-72
2024/01/21 03:48:07;;;;;;;12.00;5.28;;;;;;;-144.74;100.00;63161.41;4956310;28;20045;-73
2024/01/21 03:50:32;;;;;;;10.80;5.80;;;;;;;-144.74;100.00;63161.41;4962214;28;20163;-72
2024/01/21 03:53:00;;;;;;;15.37;5.40;;;;;;;-144.74;100.00;63161.41;4957410;28;20029;-72
2024/01/21 03:55:33;;;;;;;15.17;5.40;;;;;;;-144.74;100.00;63161.41;4956166;28;20046;-72
2024/01/21 03:57:58;;;;;;;14.90;5.17;;;;;;;-144.74;100.00;63161.41;4970979;28;20022;-73
2024/01/21 04:00:24;;;;;;;18.37;6.17;;;;;;;-144.74;100.00;63161.41;4980867;28;20043;-72
2024/01/21 04:02:49;;;;;;;13.03;6.33;;;;;;;-144.74;100.00;63161.41;4956697;28;20029;-73
2024/01/21 04:05:15;;;;;;;11.73;5.03;;;;;;;-144.74;100.00;63161.41;4951974;28;20070;-74
2024/01/21 04:07:40;;;;;;;9.73;4.80;;;;;;;-144.74;100.00;63161.41;4956034;28;20035;-72
2024/01/21 04:10:07;;;;;;;14.50;5.53;;;;;;;-144.74;100.00;63161.41;4955581;28;20045;-73
2024/01/21 04:12:33;;;;;;;23.00;7.23;;;;;;;-144.74;100.00;63161.41;4955941;28;20126;-73
2024/01/21 04:14:58;;;;;;;17.80;5.93;;;;;;;-144.74;100.00;63161.41;4953731;28;20042;-72
2024/01/21 04:17:23;;;;;;;9.20;4.87;;;;;;;-144.74;100.00;63161.41;4951721;28;20057;-72
2024/01/21 04:19:49;;;;;;;14.90;5.93;;;;;;;-144.74;100.00;63161.41;4952816;28;20043;-72
2024/01/21 04:22:16;;;;;;;16.40;5.80;;;;;;;-144.74;100.00;63161.41;4955489;28;20045;-72
2024/01/21 04:24:41;;;;;;;13.25;5.18;;;;;;;-144.74;100.00;63161.41;4955440;28;20042;-72
2024/01/21 04:27:06;;;;;;;11.83;5.30;;;;;;;-144.74;100.00;63161.41;4957448;28;20019;-72
2024/01/21 04:29:32;;;;;;;12.25;6.18;;;;;;;-144.74;100.00;63161.41;4949191;28;20035;-72
2024/01/21 04:31:57;;;;;;;10.93;5.88;;;;;;;-144.74;100.00;63161.41;4955405;28;20038;-73
2024/01/21 04:34:22;;;;;;;10.70;5.77;;;;;;;-144.74;100.00;63161.41;4955176;28;20031;-72
2024/01/21 04:36:48;;;;;;;12.18;5.97;;;;;;;-144.74;100.00;63161.41;4955750;28;20030;-72
2024/01/21 04:39:17;;;;;;;12.93;5.22;;;;;;;-144.74;100.00;63161.41;4955975;28;20043;-72
2024/01/21 04:41:42;;;;;;;14.20;6.07;;;;;;;-144.74;100.00;63161.41;4957745;28;20114;-73
2024/01/21 04:44:08;;;;;;;14.47;6.07;;;;;;;-144.74;100.00;63161.41;4961538;28;20118;-73
2024/01/21 04:46:34;;;;;;;11.82;5.47;;;;;;;-144.74;100.00;63161.41;4955792;28;20037;-73
2024/01/21 04:48:59;;;;;;;14.40;5.70;;;;;;;-144.74;100.00;63161.41;4953690;28;20039;-72
2024/01/21 04:51:24;;;;;;;16.80;5.70;;;;;;;-144.74;100.00;63161.41;4950866;28;20383;-73
2024/01/21 04:53:50;;;;;;;13.32;5.25;;;;;;;-144.74;100.00;63161.41;4955240;28;20039;-73
2024/01/21 04:56:16;;;;;;;9.93;5.03;;;;;;;-144.74;100.00;63161.41;4957423;28;20026;-72
2024/01/21 04:58:42;;;;;;;10.00;4.83;;;;;;;-144.74;100.00;63161.41;4955347;28;20035;-71
2024/01/21 05:01:07;;;;;;;7.93;4.50;;;;;;;-144.74;100.00;63161.41;4955288;28;20027;-72
2024/01/21 05:03:33;;;;;;;9.20;3.93;;;;;;;-144.74;100.00;63161.41;4967456;28;20113;-71
2024/01/21 05:05:58;;;;;;;9.63;5.00;;;;;;;-144.74;100.00;63161.41;4948961;28;20394;-72
2024/01/21 05:08:24;;;;;;;9.43;4.43;;;;;;;-144.74;100.00;63161.41;4953611;28;20166;-71
2024/01/21 05:10:49;;;;;;;14.35;4.70;;;;;;;-144.74;100.00;63161.41;4955413;28;20038;-72
2024/01/21 05:13:14;;;;;;;10.85;4.72;;;;;;;-144.74;100.00;63161.41;4977929;28;20038;-73
2024/01/21 05:15:40;;;;;;;10.70;4.88;;;;;;;-144.74;100.00;63161.41;4975778;28;20038;-71
2024/01/21 05:18:05;;;;;;;10.27;4.60;;;;;;;-144.74;100.00;63161.41;4959448;28;20026;-72
2024/01/21 05:20:33;;;;;;;11.60;3.75;;;;;;;-144.74;100.00;63161.41;4951957;28;20105;-72
2024/01/21 05:22:59;;;;;;;10.07;4.28;;;;;;;-144.74;100.00;63161.41;4958543;28;20050;-73
2024/01/21 05:25:24;;;;;;;9.07;3.95;;;;;;;-144.74;100.00;63161.41;4960526;28;20042;-73
2024/01/21 05:27:50;;;;;;;7.22;3.80;;;;;;;-144.74;100.00;63161.41;4965773;28;20038;-72
2024/01/21 05:30:15;;;;;;;7.22;3.70;;;;;;;-144.74;100.00;63161.41;4953933;28;20039;-73
2024/01/21 05:32:46;;;;;;;5.85;3.38;;;;;;;-144.74;100.00;63161.41;4959104;28;20119;-74
2024/01/21 05:35:11;;;;;;;16.23;4.30;;;;;;;-144.74;100.00;63161.41;4949713;28;20041;-71
2024/01/21 05:37:37;;;;;;;6.47;3.25;;;;;;;-144.74;100.00;63161.41;4957032;28;20122;-73
2024/01/21 05:40:02;;;;;;;14.82;3.88;;;;;;;-144.74;100.00;63161.41;4958169;28;20062;-73
2024/01/21 05:42:28;;;;;;;6.68;3.58;;;;;;;-144.74;100.00;63161.41;4958322;28;20042;-73
2024/01/21 05:44:53;;;;;;;7.88;3.50;;;;;;;-144.74;100.00;63161.41;4956517;28;20039;-74
2024/01/21 05:47:18;;;;;;;6.50;3.50;;;;;;;-144.74;100.00;63161.41;4952833;28;20023;-72
2024/01/21 05:49:44;;;;;;;9.43;3.03;;;;;;;-144.74;100.00;63161.41;4956413;28;20047;-72
2024/01/21 05:52:09;;;;;;;13.48;3.47;;;;;;;-144.74;100.00;63161.41;4958132;28;20035;-74
2024/01/21 05:54:34;;;;;;;8.30;3.03;;;;;;;-144.74;100.00;63161.41;4975312;28;20039;-74
2024/01/21 05:57:00;;;;;;;6.82;2.33;;;;;;;-144.74;100.00;63161.41;4954175;28;20071;-72
2024/01/21 05:59:25;;;;;;;6.07;3.40;;;;;;;-144.74;100.00;63161.41;4956340;28;20039;-75
2024/01/21 06:01:51;;;;;;;5.13;2.70;;;;;;;-144.74;100.00;63161.41;4973620;28;20034;-71
2024/01/21 06:04:16;;;;;;;5.20;2.35;;;;;;;-144.74;100.00;63161.41;4957762;28;20042;-74
2024/01/21 06:06:42;;;;;;;4.05;2.40;;;;;;;-144.74;100.00;63161.41;4976136;28;20031;-71
2024/01/21 06:09:08;;;;;;;6.97;2.67;;;;;;;-144.74;100.00;63161.41;4965887;28;20039;-72
2024/01/21 06:11:33;;;;;;;8.15;2.50;;;;;;;-144.74;100.00;63161.41;4958285;28;20486;-73
2024/01/21 06:13:58;;;;;;;5.07;2.60;;;;;;;-144.74;100.00;63161.41;4965538;28;20045;-72
2024/01/21 06:16:24;;;;;;;5.25;2.60;;;;;;;-144.74;100.00;63161.41;4958396;28;20023;-73
2024/01/21 06:18:49;;;;;;;8.32;2.63;;;;;;;-144.74;100.00;63161.41;4965165;28;20029;-73
2024/01/21 06:21:17;;;;;;;14.32;3.13;;;;;;;-144.74;100.00;63161.41;4956393;28;20023;-72
2024/01/21 06:23:44;;;;;;;6.95;3.08;;;;;;;-144.74;100.00;63161.41;4957377;28;20115;-72
2024/01/21 06:26:20;;;;;;;6.20;2.90;;;;;;;-144.74;100.00;63161.41;4956787;28;20018;-72
2024/01/21 06:28:49;;;;;;;3.47;2.60;;;;;;;-144.74;100.00;63161.41;4957203;28;20114;-72
2024/01/21 06:31:15;;;;;;;5.32;2.35;;;;;;;-144.74;100.00;63161.41;4957680;28;20446;-72
2024/01/21 06:33:41;;;;;;;6.22;2.75;;;;;;;-144.74;100.00;63161.41;4955814;28;20053;-72
2024/01/21 06:36:07;;;;;;;7.50;2.58;;;;;;;-144.74;100.00;63161.41;4957451;28;20478;-72
2024/01/21 06:38:33;;;;;;;3.95;2.40;;;;;;;-144.74;100.00;63161.41;4956125;28;20027;-72
2024/01/21 06:40:58;;;;;;;3.88;2.40;;;;;;;-144.74;100.00;63161.41;4956783;28;20061;-73
2024/01/21 06:43:24;;;;;;;4.40;2.40;;;;;;;-144.74;100.00;63161.41;4967634;28;20026;-73
2024/01/21 06:45:49;;;;;;;4.30;2.30;;;;;;;-144.74;100.00;63161.41;4950601;28;20039;-71
2024/01/21 06:48:15;;;;;;;4.07;2.33;;;;;;;-144.74;100.00;63161.41;4957090;28;20023;-72
2024/01/21 06:50:40;;;;;;;7.43;2.45;;;;;;;-144.74;100.00;63161.41;4967732;28;20034;-74
2024/01/21 06:53:05;;;;;;;7.78;2.72;;;;;;;-144.74;100.00;63161.41;4957090;28;20057;-73
2024/01/21 06:55:31;;;;;;;6.53;2.65;;;;;;;-144.74;100.00;63161.41;4960235;28;20085;-74
2024/01/21 06:57:56;;;;;;;8.02;2.55;;;;;;;-144.74;100.00;63161.41;4959895;28;20030;-73
2024/01/21 07:00:22;;;;;;;4.05;2.55;;;;;;;-144.74;100.00;63161.41;4973944;28;20054;-72
2024/01/21 07:02:47;;;;;;;4.13;2.40;;;;;;;-144.74;100.00;63161.41;4974350;28;20027;-73
2024/01/21 07:05:12;;;;;;;7.10;2.70;;;;;;;-144.74;100.00;63161.41;4956483;28;20031;-72
2024/01/21 07:07:38;;;;;;;3.90;2.35;;;;;;;-144.74;100.00;63161.41;4957081;28;20074;-72
2024/01/21 07:10:03;;;;;;;5.05;2.38;;;;;;;-144.74;100.00;63161.41;4956512;28;20038;-73
2024/01/21 07:12:29;;;;;;;7.70;2.22;;;;;;;-144.74;100.00;63161.41;4957072;28;20041;-73
2024/01/21 07:14:54;;;;;;;6.15;2.25;;;;;;;-144.74;100.00;63161.41;4956365;28;20039;-72
2024/01/21 07:17:19;;;;;;;11.70;3.38;;;;;;;-144.74;100.00;63161.41;4950653;28;20544;-74
2024/01/21 07:19:44;;;;;;;5.30;2.45;;;;;;;-144.74;100.00;63161.41;4956702;28;20039;-74
2024/01/21 07:22:10;;;;;;;9.77;2.70;;;;;;;-144.74;100.00;63161.41;4956656;28;20057;-72
2024/01/21 07:24:35;;;;;;;11.35;2.90;;;;;;;-144.74;100.00;63161.41;4956566;28;20042;-75
2024/01/21 07:27:02;;;;;;;5.70;2.97;;;;;;;-144.74;100.00;63161.41;4956869;28;20478;-72
2024/01/21 07:29:27;;;;;;;8.57;2.45;;;;;;;-144.74;100.00;63161.41;4956627;28;20043;-68
2024/01/21 07:31:53;;;;;;;7.95;2.40;;;;;;;-144.74;100.00;63161.41;4957169;28;20031;-69
2024/01/21 07:34:18;;;;;;;6.63;3.25;;;;;;;-144.74;100.00;63161.41;4957128;28;20106;-69
2024/01/21 07:36:43;;;;;;;6.88;2.72;;;;;;;-144.74;100.00;63161.41;4956456;28;20026;-68
2024/01/21 07:39:08;;;;;;;9.73;2.60;;;;;;;-144.74;100.00;63161.41;4974389;28;20026;-69
2024/01/21 07:41:34;;;;;;;8.10;2.97;;;;;;;-144.74;100.00;63161.41;4976187;28;20133;-68
2024/01/21 07:43:59;;;;;;;6.70;2.45;;;;;;;-144.74;100.00;63161.41;4975823;28;20134;-69
2024/01/21 07:46:25;;;;;;;4.03;2.53;;;;;;;-144.74;100.00;63161.41;4976852;28;20042;-68
2024/01/21 07:48:50;;;;;;;5.22;2.40;;;;;;;-144.74;100.00;63161.41;4975933;28;20042;-68
2024/01/21 07:51:19;;;;;;;4.15;2.35;;;;;;;-144.74;100.00;63161.41;4976405;28;20018;-69
2024/01/21 07:53:46;;;;;;;8.00;3.10;;;;;;;-144.74;100.00;63161.41;4975928;28;20027;-69
2024/01/21 07:56:12;;;;;;;9.20;2.83;;;;;;;-144.74;100.00;63161.41;4959526;28;20018;-68
2024/01/21 07:58:38;;;;;;;11.55;4.28;;;;;;;-144.74;100.00;63161.41;4956171;28;20015;-69
2024/01/21 08:01:07;;;;;;;8.70;2.78;;;;;;;-144.74;100.00;63161.41;4956891;28;20014;-68
2024/01/21 08:03:32;;;;;;;5.35;2.70;;;;;;;-144.74;100.00;63161.41;4956432;28;20469;-69
2024/01/21 08:05:58;;;;;;;5.53;2.75;;;;;;;-144.74;100.00;63161.41;4956517;28;20114;-68
2024/01/21 08:08:23;;;;;;;6.75;3.20;;;;;;;-144.74;100.00;63161.41;4956811;28;20074;-68
2024/01/21 08:10:48;;;;;;;6.80;2.80;;;;;;;-144.74;100.00;63161.41;4955834;28;20062;-69
2024/01/21 08:13:13;;;;;;;8.35;2.80;;;;;;;-144.74;100.00;63161.41;4956867;28;20035;-68
2024/01/21 08:15:39;;;;;;;4.55;2.60;;;;;;;-144.74;100.00;63161.41;4973452;28;20057;-69
2024/01/21 08:18:05;;;;;;;6.00;2.65;;;;;;;-144.74;100.00;63161.41;4956406;28;20205;-70
2024/01/21 08:20:30;;;;;;;4.75;2.88;;;;;;;-144.74;100.00;63161.41;4955962;28;20509;-68
2024/01/21 08:22:56;;;;;;;5.47;2.90;;;;;;;-144.74;100.00;63161.41;4973794;28;20038;-69
2024/01/21 08:25:21;;;;;;;9.75;2.72;;;;;;;-144.74;100.00;63161.41;4956019;28;20042;-68
2024/01/21 08:27:47;;;;;;;5.95;2.90;;;;;;;-144.74;100.00;63161.41;4971504;28;20088;-68
2024/01/21 08:30:12;;;;;;;6.25;2.88;;;;;;;-144.74;100.00;63161.41;4975476;28;20045;-68
2024/01/21 08:32:38;;;;;;;5.13;2.50;;;;;;;-144.74;100.00;63161.41;4962959;28;20030;-70
2024/01/21 08:35:04;;;;;;;5.47;2.90;;;;;;;-144.74;100.00;63161.41;4957287;28;20124;-69
2024/01/21 08:37:30;;;;;;;5.72;3.15;;;;;;;-144.74;100.00;63161.41;4972377;28;20031;-69
2024/01/21 08:39:55;;;;;;;12.10;2.95;;;;;;;-144.74;100.00;63161.41;4956035;28;20043;-69
2024/01/21 08:42:20;;;;;;;6.95;2.80;;;;;;;-144.74;100.00;63161.41;4956451;28;20495;-68
2024/01/21 08:44:46;;;;;;;6.25;3.35;;;;;;;-144.74;100.00;63161.41;4973248;28;20039;-70
2024/01/21 08:47:11;;;;;;;9.27;3.70;;;;;;;-144.74;100.00;63161.41;4956788;28;20027;-68
2024/01/21 08:49:36;;;;;;;10.63;3.30;;;;;;;-144.74;100.00;63161.41;4975194;28;20042;-68
2024/01/21 08:52:02;;;;;;;4.10;2.78;;;;;;;-144.74;100.00;63161.41;4977741;28;20088;-69
2024/01/21 08:54:27;;;;;;;8.13;3.28;;;;;;;-144.74;100.00;63161.41;4977274;28;20039;-69
2024/01/21 08:56:53;;;;;;;11.35;3.72;;;;;;;-144.74;100.00;63161.41;4960284;28;20027;-68
2024/01/21 08:59:19;;;;;;;10.82;3.20;;;;;;;-144.74;100.00;63161.41;4959458;28;20105;-67
2024/01/21 09:01:44;;;;;;;9.20;3.08;;;;;;;-144.74;100.00;63161.41;4960112;28;20433;-68
2024/01/21 09:04:10;;;;;;;7.22;3.17;;;;;;;-144.74;100.00;63161.41;4959028;28;20039;-69
2024/01/21 09:06:41;;;;;;;4.88;2.70;;;;;;;-144.74;100.00;63161.41;4940987;29;20035;-70
2024/01/21 09:09:12;;;;;;;4.60;2.33;;;;;;;-144.74;100.00;63161.41;4966714;28;20069;-67
2024/01/21 09:11:38;;;;;;;5.88;2.88;;;;;;;-144.74;100.00;63161.41;4960071;28;20339;-68
2024/01/21 09:14:05;;;;;;;14.13;3.35;;;;;;;-144.74;100.00;63161.41;4959336;28;20035;-68
2024/01/21 09:16:30;;;;;;;14.93;3.67;;;;;;;-144.74;100.00;63161.41;4964462;28;20031;-68
2024/01/21 09:18:55;;;;;;;5.38;3.13;;;;;;;-144.74;100.00;63161.41;4964153;28;20030;-67
2024/01/21 09:21:21;;;;;;;20.38;3.10;;;;;;;-144.74;100.00;63161.41;4959842;28;20058;-68
2024/01/21 09:23:46;;;;;;;11.82;3.65;;;;;;;-144.74;100.00;63161.41;4959358;28;20037;-68
2024/01/21 09:26:12;;;;;;;7.18;3.15;;;;;;;-144.74;100.00;63161.41;4959653;28;20033;-69
2024/01/21 09:28:37;;;;;;;8.27;3.03;;;;;;;-144.74;100.00;63161.41;4958878;28;20034;-68
2024/01/21 09:31:03;;;;;;;7.03;3.38;;;;;;;-144.74;100.00;63161.41;4959428;28;20096;-69
2024/01/21 09:33:29;;;;;;;14.38;3.90;;;;;;;-144.74;100.00;63161.41;4963915;28;20030;-68
2024/01/21 09:35:54;;;;;;;5.90;3.30;;;;;;;-144.74;100.00;63161.41;4972183;28;20027;-69
2024/01/21 09:38:21;;;;;;;5.82;3.10;;;;;;;-144.74;100.00;63161.41;4976640;28;20027;-68
2024/01/21 09:40:57;;;;;;;8.65;3.15;;;;;;;-144.74;100.00;63161.41;4975826;28;20034;-68
2024/01/21 09:43:23;;;;;;;11.40;3.78;;;;;;;-144.74;100.00;63161.41;4958546;28;20022;-68
2024/01/21 09:45:48;;;;;;;7.13;3.30;;;;;;;-144.74;100.00;63161.41;4953509;29;20042;-67
2024/01/21 09:48:15;;;;;;;8.88;3.05;;;;;;;-144.74;100.00;63161.41;4942773;28;20024;-68
2024/01/21 09:50:40;;;;;;;5.82;2.78;;;;;;;-144.74;100.00;63161.41;4960476;28;20026;-70
2024/01/21 09:53:06;;;;;;;18.95;4.07;;;;;;;-144.74;100.00;63161.41;4958790;28;20135;-70
2024/01/21 09:55:32;;;;;;;6.15;3.28;;;;;;;-144.74;100.00;63161.41;4958677;28;20449;-68
2024/01/21 09:58:00;;;;;;;6.68;3.22;;;;;;;-144.74;100.00;63161.41;4959639;28;20042;-68
2024/01/21 10:00:26;;;;;;;9.80;3.42;;;;;;;-144.74;100.00;63161.41;4957280;28;20414;-68
2024/01/21 10:02:51;;;;;;;6.88;3.50;;;;;;;-144.74;100.00;63161.41;4958858;28;20030;-68
2024/01/21 10:05:17;;;;;;;16.95;4.03;;;;;;;-144.74;100.00;63161.41;4973293;28;20130;-67
2024/01/21 10:07:43;;;;;;;10.52;3.38;;;;;;;-144.74;100.00;63161.41;4953138;28;20039;-68
2024/01/21 10:10:12;;;;;;;9.57;3.20;;;;;;;-144.74;100.00;63161.41;4958186;28;20097;-70
2024/01/21 10:12:57;;;;;;;10.55;2.90;;;;;;;-144.74;100.00;63161.41;4956079;28;20081;-68
2024/01/21 10:15:22;;;;;;;4.63;2.80;;;;;;;-144.74;100.00;63161.41;4968688;28;20445;-68
2024/01/21 10:17:51;;;;;;;9.40;3.65;;;;;;;-144.74;100.00;63161.41;4977664;28;20034;-66
2024/01/21 10:20:17;;;;;;;11.98;2.90;;;;;;;-144.74;100.00;63161.41;4973692;28;20031;-67
2024/01/21 10:22:44;;;;;;;17.98;3.40;;;;;;;-144.74;100.00;63161.41;4955370;29;20066;-68
2024/01/21 10:25:12;;;;;;;14.40;3.72;;;;;;;-144.74;100.00;63161.41;4988825;28;20066;-67
2024/01/21 10:27:37;;;;;;;9.20;3.47;;;;;;;-144.74;100.00;63161.41;4954977;28;20030;-68
2024/01/21 10:30:06;;;;;;;8.13;3.95;;;;;;;-144.74;100.00;63161.41;4976087;28;20038;-69
2024/01/21 10:32:31;;;;;;;13.98;3.00;;;;;;;-144.74;100.00;63161.41;4959112;28;20414;-68
2024/01/21 10:34:57;;;;;;;13.40;3.63;;;;;;;-144.74;100.00;63161.41;4957926;28;20035;-67
2024/01/21 10:37:24;;;;;;;8.00;3.25;;;;;;;-144.74;100.00;63161.41;4958159;28;20027;-68
2024/01/21 10:39:49;;;;;;;5.38;3.17;;;;;;;-144.74;100.00;63161.41;4957187;28;20031;-68
2024/01/21 10:42:16;;;;;;;7.35;2.83;;;;;;;-144.74;100.00;63161.41;4975207;28;20105;-68
2024/01/21 10:44:43;;;;;;;7.35;3.03;;;;;;;-144.74;100.00;63161.41;4950954;28;20037;-68
2024/01/21 10:47:09;;;;;;;6.40;3.08;;;;;;;-144.74;100.00;63161.41;4983101;28;20023;-67
2024/01/21 10:49:35;;;;;;;6.85;3.67;;;;;;;-144.74;100.00;63161.41;4955039;28;20035;-69
2024/01/21 10:52:00;;;;;;;8.73;3.92;;;;;;;-144.74;100.00;63161.41;4968656;28;20066;-68
2024/01/21 10:54:27;;;;;;;8.57;3.22;;;;;;;-144.74;100.00;63161.41;4957728;28;20062;-68
2024/01/21 10:56:53;;;;;;;9.45;2.95;;;;;;;-144.74;100.00;63161.41;4957973;28;20034;-68
2024/01/21 10:59:19;;;;;;;5.38;3.38;;;;;;;-144.74;100.00;63161.41;4957414;28;20035;-67
2024/01/21 11:01:45;;;;;;;6.30;3.60;;;;;;;-144.74;100.00;63161.41;4965953;28;20027;-67